Time;durP1;ratioP1;P1;durP2;ratioP2;P2;SDS_P1;SDS_P2;PMS_P1;PMS_P2;Temp;Humidity;BMP_temperature;BMP_pressure;BME280_temperature;BME280_humidity;BME280_pressure;Samples;Min_cycle;Max_cycle;Signal;HPM_P1;HPM_P2
2023/04/09 00:01:11;;;;;;;22.70;17.73;;;;;;;;;;5046494;28;20292;-64
2023/04/09 00:03:39;;;;;;;21.00;17.43;;;;;;;;;;5041037;28;20217;-65
2023/04/09 00:06:07;;;;;;;21.90;17.33;;;;;;;;;;5049119;28;20248;-64
2023/04/09 00:08:35;;;;;;;20.30;17.00;;;;;;;;;;5053921;28;20265;-64
2023/04/09 00:11:03;;;;;;;23.83;17.57;;;;;;;;;;5063457;28;20266;-64
2023/04/09 00:13:30;;;;;;;22.03;17.07;;;;;;;;;;5060665;28;20327;-64
2023/04/09 00:16:05;;;;;;;24.97;18.63;;;;;;;;;;5041182;28;20201;-64
2023/04/09 00:18:33;;;;;;;24.37;18.90;;;;;;;;;;5055145;28;20236;-64
2023/04/09 00:21:00;;;;;;;24.47;19.53;;;;;;;;;;5051676;28;20301;-65
2023/04/09 00:23:28;;;;;;;25.40;18.10;;;;;;;;;;5047045;28;20219;-65
2023/04/09 00:25:55;;;;;;;25.37;19.17;;;;;;;;;;5045049;28;20636;-64
2023/04/09 00:28:22;;;;;;;24.43;18.23;;;;;;;;;;5047961;28;20229;-65
2023/04/09 00:30:50;;;;;;;23.63;19.23;;;;;;;;;;5049899;28;20331;-65
2023/04/09 00:33:17;;;;;;;24.27;19.27;;;;;;;;;;5046207;28;20207;-64
2023/04/09 00:35:44;;;;;;;23.93;18.63;;;;;;;;;;5039381;28;20247;-63
2023/04/09 00:38:12;;;;;;;23.47;18.70;;;;;;;;;;5038983;28;20228;-65
2023/04/09 00:40:40;;;;;;;25.47;19.97;;;;;;;;;;5041430;28;20318;-66
2023/04/09 00:43:07;;;;;;;23.53;19.27;;;;;;;;;;5034524;28;20210;-63
2023/04/09 00:45:35;;;;;;;25.17;19.70;;;;;;;;;;5060365;28;20625;-63
2023/04/09 00:48:02;;;;;;;25.47;19.33;;;;;;;;;;5037038;28;20783;-66
2023/04/09 00:50:30;;;;;;;28.10;19.93;;;;;;;;;;5034476;28;20757;-65
2023/04/09 00:52:57;;;;;;;23.73;19.07;;;;;;;;;;5029318;28;20213;-63
2023/04/09 00:55:24;;;;;;;24.60;19.00;;;;;;;;;;5036639;28;20729;-62
2023/04/09 00:57:52;;;;;;;24.33;19.83;;;;;;;;;;5030050;28;20202;-65
2023/04/09 01:00:19;;;;;;;26.90;20.13;;;;;;;;;;5034526;28;20322;-65
2023/04/09 01:02:47;;;;;;;26.50;19.13;;;;;;;;;;5033362;28;20209;-65
2023/04/09 01:05:15;;;;;;;23.90;19.03;;;;;;;;;;5039068;28;20295;-65
2023/04/09 01:07:50;;;;;;;25.47;19.93;;;;;;;;;;5035353;28;25493;-65
2023/04/09 01:10:37;;;;;;;25.03;20.67;;;;;;;;;;5039094;28;20318;-65
2023/04/09 01:13:12;;;;;;;26.53;20.13;;;;;;;;;;5055479;28;20281;-63
2023/04/09 01:15:42;;;;;;;28.83;20.77;;;;;;;;;;5035260;28;20232;-65
2023/04/09 01:18:11;;;;;;;28.07;20.40;;;;;;;;;;5037310;28;20225;-63
2023/04/09 01:20:40;;;;;;;25.67;20.37;;;;;;;;;;5046211;28;20241;-66
2023/04/09 01:23:10;;;;;;;26.60;19.60;;;;;;;;;;5068461;28;20241;-64
2023/04/09 01:25:38;;;;;;;25.97;19.97;;;;;;;;;;5045145;28;20207;-63
2023/04/09 01:28:18;;;;;;;26.10;20.00;;;;;;;;;;5049875;28;20789;-63
2023/04/09 01:30:48;;;;;;;25.10;20.17;;;;;;;;;;5037542;28;20778;-63
2023/04/09 01:33:17;;;;;;;25.50;19.67;;;;;;;;;;5043634;28;20390;-63
2023/04/09 01:35:45;;;;;;;24.07;19.03;;;;;;;;;;5038360;28;20353;-65
2023/04/09 01:38:14;;;;;;;25.37;20.07;;;;;;;;;;5044762;28;20612;-63
2023/04/09 01:40:42;;;;;;;27.13;19.97;;;;;;;;;;5042552;28;20219;-63
2023/04/09 01:43:10;;;;;;;28.00;19.23;;;;;;;;;;5052591;28;20569;-63
2023/04/09 01:45:37;;;;;;;25.03;19.83;;;;;;;;;;5034980;28;20382;-65
2023/04/09 01:48:05;;;;;;;27.60;20.93;;;;;;;;;;5041812;28;20315;-65
2023/04/09 01:50:33;;;;;;;27.63;20.57;;;;;;;;;;5038481;28;20339;-65
2023/04/09 01:53:01;;;;;;;25.37;20.07;;;;;;;;;;5043903;28;20343;-65
2023/04/09 01:55:28;;;;;;;25.83;19.80;;;;;;;;;;5033982;28;20247;-62
2023/04/09 01:57:55;;;;;;;28.10;20.47;;;;;;;;;;5036937;28;20262;-64
2023/04/09 02:00:24;;;;;;;27.07;19.67;;;;;;;;;;5035673;28;20217;-66
2023/04/09 02:03:03;;;;;;;27.60;20.67;;;;;;;;;;5036623;28;20237;-64
2023/04/09 02:05:35;;;;;;;28.93;21.20;;;;;;;;;;5056607;28;20236;-66
2023/04/09 02:08:03;;;;;;;26.43;20.67;;;;;;;;;;5061603;28;20224;-65
2023/04/09 02:10:31;;;;;;;26.57;20.47;;;;;;;;;;5070828;28;20244;-62
2023/04/09 02:12:59;;;;;;;26.93;19.87;;;;;;;;;;5060424;28;20579;-65
2023/04/09 02:15:28;;;;;;;26.67;20.80;;;;;;;;;;5047969;28;20303;-63
2023/04/09 02:17:55;;;;;;;26.60;21.13;;;;;;;;;;5034838;28;20309;-65
2023/04/09 02:20:23;;;;;;;27.27;20.50;;;;;;;;;;5043447;28;21323;-65
2023/04/09 02:22:50;;;;;;;35.47;25.40;;;;;;;;;;5041375;28;20197;-64
2023/04/09 02:25:18;;;;;;;29.57;22.10;;;;;;;;;;5045066;28;20322;-63
2023/04/09 02:27:46;;;;;;;24.80;20.20;;;;;;;;;;5041203;28;20377;-62
2023/04/09 02:30:14;;;;;;;27.43;20.23;;;;;;;;;;5049750;28;20293;-64
2023/04/09 02:32:41;;;;;;;26.57;20.33;;;;;;;;;;5060224;28;20676;-63
2023/04/09 02:35:09;;;;;;;26.73;21.50;;;;;;;;;;5051744;28;20225;-65
2023/04/09 02:37:36;;;;;;;28.90;21.27;;;;;;;;;;5053024;28;20721;-63
2023/04/09 02:40:04;;;;;;;27.17;20.67;;;;;;;;;;5064750;28;20229;-65
2023/04/09 02:42:32;;;;;;;24.40;19.27;;;;;;;;;;5057207;28;20215;-64
2023/04/09 02:45:00;;;;;;;26.87;20.77;;;;;;;;;;5040875;28;20213;-63
2023/04/09 02:47:29;;;;;;;26.17;20.33;;;;;;;;;;5037077;28;20557;-64
2023/04/09 02:49:56;;;;;;;27.33;20.63;;;;;;;;;;5038279;28;20654;-63
2023/04/09 02:52:24;;;;;;;25.27;20.07;;;;;;;;;;5036608;28;20284;-65
2023/04/09 02:54:52;;;;;;;26.80;20.43;;;;;;;;;;5052269;28;20319;-65
2023/04/09 02:57:19;;;;;;;25.53;20.17;;;;;;;;;;5049111;28;20228;-65
2023/04/09 02:59:47;;;;;;;25.63;20.33;;;;;;;;;;5028766;28;20230;-64
2023/04/09 03:02:14;;;;;;;26.07;20.20;;;;;;;;;;5058784;28;20327;-65
2023/04/09 03:04:42;;;;;;;26.83;19.67;;;;;;;;;;5041495;28;20208;-64
2023/04/09 03:07:09;;;;;;;25.67;19.50;;;;;;;;;;5041072;28;20548;-64
2023/04/09 03:09:36;;;;;;;24.53;19.37;;;;;;;;;;5030137;28;20838;-65
2023/04/09 03:12:04;;;;;;;24.73;18.27;;;;;;;;;;5039553;28;20240;-64
2023/04/09 03:14:32;;;;;;;26.43;20.20;;;;;;;;;;5028899;28;20673;-62
2023/04/09 03:17:01;;;;;;;25.70;19.40;;;;;;;;;;5034832;28;20292;-65
2023/04/09 03:19:30;;;;;;;25.40;19.17;;;;;;;;;;5051574;28;20311;-65
2023/04/09 03:21:57;;;;;;;24.17;19.30;;;;;;;;;;5036318;28;20356;-63
2023/04/09 03:24:24;;;;;;;25.77;19.60;;;;;;;;;;5038412;28;21056;-63
2023/04/09 03:26:53;;;;;;;25.57;20.37;;;;;;;;;;5046671;28;21010;-63
2023/04/09 03:29:20;;;;;;;29.20;20.93;;;;;;;;;;5035225;28;20259;-62
2023/04/09 03:31:48;;;;;;;25.93;19.73;;;;;;;;;;5052288;28;20235;-63
2023/04/09 03:34:15;;;;;;;25.40;19.63;;;;;;;;;;5040069;28;21226;-64
2023/04/09 03:36:43;;;;;;;25.40;19.90;;;;;;;;;;5030303;28;20233;-63
2023/04/09 03:39:10;;;;;;;26.37;19.60;;;;;;;;;;5035521;28;20324;-64
2023/04/09 03:41:38;;;;;;;28.90;21.13;;;;;;;;;;5040094;28;20232;-65
2023/04/09 03:44:05;;;;;;;24.77;20.20;;;;;;;;;;5032127;28;20204;-63
2023/04/09 03:46:32;;;;;;;26.10;19.47;;;;;;;;;;5034598;28;20322;-64
2023/04/09 03:49:00;;;;;;;26.97;20.33;;;;;;;;;;5040983;28;20224;-65
2023/04/09 03:51:28;;;;;;;27.57;21.30;;;;;;;;;;5030818;28;20296;-65
2023/04/09 03:53:55;;;;;;;26.40;20.00;;;;;;;;;;5037187;28;20229;-65
2023/04/09 03:56:22;;;;;;;24.83;19.50;;;;;;;;;;5045340;28;20351;-65
2023/04/09 03:58:50;;;;;;;26.33;20.23;;;;;;;;;;5038804;28;20303;-65
2023/04/09 04:01:18;;;;;;;25.90;19.97;;;;;;;;;;5034060;28;20580;-65
2023/04/09 04:03:45;;;;;;;27.63;19.57;;;;;;;;;;5059714;28;20228;-66
2023/04/09 04:06:13;;;;;;;28.87;20.97;;;;;;;;;;5056848;28;20206;-64
2023/04/09 04:08:40;;;;;;;26.93;20.83;;;;;;;;;;5069604;28;20225;-64
2023/04/09 04:11:09;;;;;;;28.73;20.97;;;;;;;;;;5062680;28;20210;-64
2023/04/09 04:13:36;;;;;;;27.87;20.57;;;;;;;;;;5066773;28;20339;-65
2023/04/09 04:16:06;;;;;;;26.03;19.53;;;;;;;;;;5044063;28;20237;-64
2023/04/09 04:18:34;;;;;;;26.27;19.73;;;;;;;;;;5041711;28;20244;-66
2023/04/09 04:21:02;;;;;;;28.30;20.47;;;;;;;;;;5046113;28;20209;-65
2023/04/09 04:23:29;;;;;;;26.40;19.97;;;;;;;;;;5044843;28;20743;-66
2023/04/09 04:25:57;;;;;;;28.90;21.33;;;;;;;;;;5047759;28;20259;-67
2023/04/09 04:28:24;;;;;;;28.47;20.40;;;;;;;;;;5048771;28;20327;-64
2023/04/09 04:30:51;;;;;;;26.83;20.27;;;;;;;;;;5054742;28;20308;-66
2023/04/09 04:33:19;;;;;;;28.17;20.97;;;;;;;;;;5046900;28;20687;-65
2023/04/09 04:35:47;;;;;;;28.67;20.77;;;;;;;;;;5055243;28;20285;-65
2023/04/09 04:38:15;;;;;;;28.07;20.93;;;;;;;;;;5045376;28;20228;-65
2023/04/09 04:40:42;;;;;;;26.13;20.07;;;;;;;;;;5060453;28;20212;-65
2023/04/09 04:43:11;;;;;;;27.17;21.17;;;;;;;;;;5035232;28;20325;-66
2023/04/09 04:45:38;;;;;;;28.27;20.90;;;;;;;;;;5031280;28;20212;-66
2023/04/09 04:48:05;;;;;;;26.97;20.43;;;;;;;;;;5041344;28;20240;-66
2023/04/09 04:50:33;;;;;;;26.83;20.60;;;;;;;;;;5035389;28;20332;-64
2023/04/09 04:53:00;;;;;;;29.30;21.57;;;;;;;;;;5036663;28;20274;-64
2023/04/09 04:55:28;;;;;;;26.80;20.90;;;;;;;;;;5044688;28;20358;-66
2023/04/09 04:57:55;;;;;;;29.13;20.90;;;;;;;;;;5028955;28;20353;-64
2023/04/09 05:00:22;;;;;;;26.07;20.97;;;;;;;;;;5033148;28;20649;-66
2023/04/09 05:02:50;;;;;;;26.97;20.43;;;;;;;;;;5051172;28;20833;-65
2023/04/09 05:05:19;;;;;;;25.63;20.13;;;;;;;;;;5039316;28;20213;-66
2023/04/09 05:07:46;;;;;;;26.23;20.00;;;;;;;;;;5048301;28;20216;-66
2023/04/09 05:10:14;;;;;;;30.23;20.83;;;;;;;;;;5039516;28;20670;-65
2023/04/09 05:12:41;;;;;;;26.87;19.97;;;;;;;;;;5050813;28;20303;-65
2023/04/09 05:15:09;;;;;;;26.33;19.80;;;;;;;;;;5034098;28;20232;-64
2023/04/09 05:17:36;;;;;;;27.60;20.90;;;;;;;;;;5037146;28;20613;-64
2023/04/09 05:20:04;;;;;;;25.07;19.00;;;;;;;;;;5039891;28;20228;-64
2023/04/09 05:22:32;;;;;;;25.83;19.90;;;;;;;;;;5031821;28;20271;-63
2023/04/09 05:25:00;;;;;;;26.90;20.03;;;;;;;;;;5036185;28;20209;-66
2023/04/09 05:27:28;;;;;;;27.83;20.40;;;;;;;;;;5038141;28;20209;-66
2023/04/09 05:29:55;;;;;;;26.53;20.30;;;;;;;;;;5026276;28;20233;-63
2023/04/09 05:32:26;;;;;;;23.70;19.30;;;;;;;;;;5031889;28;20343;-63
2023/04/09 05:34:53;;;;;;;24.93;18.47;;;;;;;;;;5045947;28;20710;-64
2023/04/09 05:37:20;;;;;;;23.77;18.80;;;;;;;;;;5027972;28;20205;-64
2023/04/09 05:39:48;;;;;;;25.30;18.70;;;;;;;;;;5028500;28;20274;-64
2023/04/09 05:42:16;;;;;;;25.60;20.07;;;;;;;;;;5034129;28;20201;-65
2023/04/09 05:44:44;;;;;;;25.27;20.47;;;;;;;;;;5036144;28;20241;-63
2023/04/09 05:47:12;;;;;;;26.57;20.33;;;;;;;;;;5061345;28;20259;-66
2023/04/09 05:49:40;;;;;;;79.47;48.00;;;;;;;;;;5034679;28;20281;-66
2023/04/09 05:52:07;;;;;;;79.07;48.30;;;;;;;;;;5050767;28;20278;-65
2023/04/09 05:54:35;;;;;;;70.27;44.80;;;;;;;;;;5033661;28;20287;-65
2023/04/09 05:57:02;;;;;;;70.43;49.20;;;;;;;;;;5036131;28;20362;-65
2023/04/09 05:59:30;;;;;;;28.37;21.30;;;;;;;;;;5025030;28;20369;-64
2023/04/09 06:01:57;;;;;;;26.87;19.87;;;;;;;;;;5039608;28;20240;-64
2023/04/09 06:04:24;;;;;;;25.27;20.23;;;;;;;;;;5038694;28;20229;-64
2023/04/09 06:06:52;;;;;;;25.70;19.33;;;;;;;;;;5051585;28;20320;-65
2023/04/09 06:09:19;;;;;;;24.77;19.77;;;;;;;;;;5044431;28;20228;-64
2023/04/09 06:11:47;;;;;;;24.93;18.17;;;;;;;;;;5047321;28;20721;-65
2023/04/09 06:14:16;;;;;;;24.30;19.43;;;;;;;;;;5055900;28;20569;-63
2023/04/09 06:16:44;;;;;;;22.33;18.73;;;;;;;;;;5044650;28;20229;-65
2023/04/09 06:19:12;;;;;;;24.60;19.37;;;;;;;;;;5045071;28;20584;-65
2023/04/09 06:21:39;;;;;;;25.33;20.07;;;;;;;;;;5065053;28;20645;-66
2023/04/09 06:24:07;;;;;;;22.57;18.40;;;;;;;;;;5042603;28;20211;-65
2023/04/09 06:26:35;;;;;;;22.70;18.33;;;;;;;;;;5057787;28;20717;-66
2023/04/09 06:29:03;;;;;;;22.13;18.13;;;;;;;;;;5050296;28;20233;-63
2023/04/09 06:31:30;;;;;;;21.10;17.60;;;;;;;;;;5047325;28;20231;-64
2023/04/09 06:33:58;;;;;;;21.87;17.33;;;;;;;;;;5051944;28;20311;-64
2023/04/09 06:36:27;;;;;;;22.90;19.13;;;;;;;;;;5063441;28;20240;-64
2023/04/09 06:38:55;;;;;;;23.50;18.17;;;;;;;;;;5057341;28;20248;-64
2023/04/09 06:41:22;;;;;;;28.37;24.13;;;;;;;;;;5060742;28;20209;-65
2023/04/09 06:43:50;;;;;;;28.57;24.93;;;;;;;;;;5053970;28;20217;-64
2023/04/09 06:46:19;;;;;;;23.83;19.80;;;;;;;;;;5040456;28;20220;-65
2023/04/09 06:48:46;;;;;;;21.70;17.73;;;;;;;;;;5029862;28;20237;-66
2023/04/09 06:51:15;;;;;;;22.23;16.97;;;;;;;;;;5058582;28;20229;-64
2023/04/09 06:53:42;;;;;;;20.53;16.03;;;;;;;;;;5046868;28;20205;-65
2023/04/09 06:56:10;;;;;;;18.67;15.63;;;;;;;;;;5039349;28;20513;-65
2023/04/09 06:58:37;;;;;;;18.80;14.97;;;;;;;;;;5046114;28;20235;-65
2023/04/09 07:01:05;;;;;;;19.83;15.77;;;;;;;;;;5044490;28;20213;-64
2023/04/09 07:03:32;;;;;;;16.33;14.13;;;;;;;;;;5043506;28;20213;-63
2023/04/09 07:06:00;;;;;;;16.80;14.17;;;;;;;;;;5045154;28;20602;-65
2023/04/09 07:08:27;;;;;;;19.57;15.53;;;;;;;;;;5043020;28;20342;-63
2023/04/09 07:10:55;;;;;;;17.47;14.10;;;;;;;;;;5036640;28;20758;-64
2023/04/09 07:13:24;;;;;;;16.23;13.57;;;;;;;;;;5051294;28;20780;-66
2023/04/09 07:15:51;;;;;;;19.63;15.47;;;;;;;;;;5045194;28;22580;-65
2023/04/09 07:18:19;;;;;;;16.83;13.70;;;;;;;;;;5023945;28;20872;-64
2023/04/09 07:20:46;;;;;;;16.13;13.77;;;;;;;;;;5039408;28;20208;-65
2023/04/09 07:23:13;;;;;;;19.10;14.20;;;;;;;;;;5022898;28;20288;-63
2023/04/09 07:25:41;;;;;;;17.10;12.97;;;;;;;;;;5028749;28;20224;-64
2023/04/09 07:28:08;;;;;;;14.87;12.37;;;;;;;;;;5033788;28;20236;-65
2023/04/09 07:30:36;;;;;;;14.43;12.27;;;;;;;;;;5026861;28;20221;-66
2023/04/09 07:33:03;;;;;;;13.20;11.73;;;;;;;;;;5040597;28;20433;-64
2023/04/09 07:35:31;;;;;;;13.60;11.43;;;;;;;;;;5038381;28;20752;-68
2023/04/09 07:37:59;;;;;;;15.50;13.17;;;;;;;;;;5033360;28;20647;-66
2023/04/09 07:40:26;;;;;;;16.13;13.67;;;;;;;;;;5047667;28;20233;-64
2023/04/09 07:42:54;;;;;;;15.53;12.70;;;;;;;;;;5023789;28;20231;-63
2023/04/09 07:45:22;;;;;;;13.13;11.50;;;;;;;;;;5025617;28;20930;-64
2023/04/09 07:47:49;;;;;;;15.10;12.70;;;;;;;;;;5022821;28;20631;-63
2023/04/09 07:50:17;;;;;;;13.63;11.43;;;;;;;;;;5050917;28;21924;-64
2023/04/09 07:52:45;;;;;;;13.93;11.90;;;;;;;;;;5022179;28;20323;-64
2023/04/09 07:55:12;;;;;;;13.30;11.90;;;;;;;;;;5015161;28;20327;-64
2023/04/09 07:57:42;;;;;;;12.83;10.97;;;;;;;;;;5018686;28;20295;-64
2023/04/09 08:00:10;;;;;;;13.50;12.10;;;;;;;;;;5035560;28;20320;-63
2023/04/09 08:02:37;;;;;;;14.33;11.83;;;;;;;;;;5054770;28;20236;-65
2023/04/09 08:05:06;;;;;;;12.33;10.43;;;;;;;;;;5041631;28;21601;-65
2023/04/09 08:07:34;;;;;;;10.57;9.20;;;;;;;;;;5048914;28;20220;-64
2023/04/09 08:10:01;;;;;;;10.43;9.33;;;;;;;;;;5057493;28;20256;-64
2023/04/09 08:12:29;;;;;;;11.70;9.30;;;;;;;;;;5055238;28;20255;-64
2023/04/09 08:14:56;;;;;;;12.57;10.43;;;;;;;;;;5047839;28;20208;-65
2023/04/09 08:17:23;;;;;;;11.20;9.97;;;;;;;;;;5035816;28;20239;-65
2023/04/09 08:19:51;;;;;;;12.13;10.77;;;;;;;;;;5074501;28;20229;-64
2023/04/09 08:22:19;;;;;;;12.20;10.50;;;;;;;;;;5066111;28;20213;-65
2023/04/09 08:24:50;;;;;;;13.73;12.23;;;;;;;;;;5061588;28;20566;-64
2023/04/09 08:27:18;;;;;;;13.33;11.83;;;;;;;;;;5067148;28;20214;-65
2023/04/09 08:29:45;;;;;;;12.67;11.17;;;;;;;;;;5047276;28;20313;-65
2023/04/09 08:32:13;;;;;;;13.87;12.03;;;;;;;;;;5052834;28;20262;-64
2023/04/09 08:34:40;;;;;;;13.20;11.73;;;;;;;;;;5055240;28;20217;-64
2023/04/09 08:37:08;;;;;;;14.30;11.63;;;;;;;;;;5069523;28;20274;-65
2023/04/09 08:39:35;;;;;;;11.93;10.57;;;;;;;;;;5047843;28;20450;-64
2023/04/09 08:42:06;;;;;;;13.27;10.90;;;;;;;;;;5049738;28;20690;-64
2023/04/09 08:44:33;;;;;;;13.43;10.63;;;;;;;;;;5041443;28;20473;-65
2023/04/09 08:47:01;;;;;;;11.00;9.77;;;;;;;;;;5040901;28;20714;-64
2023/04/09 08:49:28;;;;;;;11.13;9.93;;;;;;;;;;5046169;28;20279;-64
2023/04/09 08:51:56;;;;;;;11.33;10.10;;;;;;;;;;5057364;28;20205;-65
2023/04/09 08:54:25;;;;;;;12.27;10.40;;;;;;;;;;5038494;28;20212;-64
2023/04/09 08:56:53;;;;;;;12.93;10.90;;;;;;;;;;5036462;28;20311;-64
2023/04/09 08:59:21;;;;;;;12.77;11.47;;;;;;;;;;5053609;28;20332;-64
2023/04/09 09:01:52;;;;;;;13.53;12.07;;;;;;;;;;5050619;28;20253;-64
2023/04/09 09:04:20;;;;;;;14.20;12.23;;;;;;;;;;5048741;28;20209;-65
2023/04/09 09:06:49;;;;;;;12.90;11.50;;;;;;;;;;5041589;28;20258;-64
2023/04/09 09:09:17;;;;;;;13.97;11.90;;;;;;;;;;5042749;28;20257;-65
2023/04/09 09:11:47;;;;;;;12.20;10.87;;;;;;;;;;5059361;28;20206;-65
2023/04/09 09:14:15;;;;;;;12.80;11.43;;;;;;;;;;5053687;28;20219;-64
2023/04/09 09:17:03;;;;;;;12.47;11.10;;;;;;;;;;5045202;28;20236;-62
2023/04/09 09:19:32;;;;;;;14.27;11.70;;;;;;;;;;5045612;28;20295;-63
2023/04/09 09:22:01;;;;;;;13.03;11.50;;;;;;;;;;5054514;28;20213;-63
2023/04/09 09:24:29;;;;;;;13.97;12.20;;;;;;;;;;5058649;28;20209;-64
2023/04/09 09:26:57;;;;;;;13.90;11.70;;;;;;;;;;5044832;28;20986;-64
2023/04/09 09:29:25;;;;;;;14.80;12.77;;;;;;;;;;5059002;28;21642;-64
2023/04/09 09:31:53;;;;;;;16.30;13.10;;;;;;;;;;5054425;28;20270;-63
2023/04/09 09:34:21;;;;;;;15.37;12.70;;;;;;;;;;5054243;28;23080;-64
2023/04/09 09:36:49;;;;;;;16.33;13.30;;;;;;;;;;5048460;28;20224;-62
2023/04/09 09:39:17;;;;;;;16.23;13.37;;;;;;;;;;5049555;28;20342;-66
2023/04/09 09:41:46;;;;;;;14.90;12.27;;;;;;;;;;5070749;28;20221;-64
2023/04/09 09:44:29;;;;;;;13.97;12.03;;;;;;;;;;5063544;28;20647;-65
2023/04/09 09:46:58;;;;;;;15.47;13.00;;;;;;;;;;5046464;28;20233;-63
2023/04/09 09:49:26;;;;;;;15.47;12.97;;;;;;;;;;5065129;28;20307;-64
2023/04/09 09:51:56;;;;;;;13.70;11.90;;;;;;;;;;5068200;28;20231;-62
2023/04/09 09:54:25;;;;;;;15.00;12.47;;;;;;;;;;5040109;28;20216;-67
2023/04/09 09:56:55;;;;;;;15.67;12.60;;;;;;;;;;5050520;28;21848;-64
2023/04/09 09:59:26;;;;;;;13.90;12.10;;;;;;;;;;5049333;28;20296;-63
2023/04/09 10:01:58;;;;;;;14.20;12.10;;;;;;;;;;5063412;28;20630;-64
2023/04/09 10:04:26;;;;;;;15.13;13.17;;;;;;;;;;5045266;28;20638;-65
2023/04/09 10:06:55;;;;;;;13.27;11.37;;;;;;;;;;5046057;28;20224;-64
2023/04/09 10:09:22;;;;;;;12.67;11.03;;;;;;;;;;5062305;28;20261;-64
2023/04/09 10:11:50;;;;;;;12.90;11.23;;;;;;;;;;5050308;28;20418;-63
2023/04/09 10:14:17;;;;;;;13.37;11.40;;;;;;;;;;5059893;28;20250;-71
2023/04/09 10:16:46;;;;;;;12.20;10.90;;;;;;;;;;5069220;28;20228;-65
2023/04/09 10:19:13;;;;;;;12.57;11.27;;;;;;;;;;5063886;28;20227;-65
2023/04/09 10:21:54;;;;;;;11.30;10.10;;;;;;;;;;5050841;28;20662;-63
2023/04/09 10:24:21;;;;;;;10.97;9.77;;;;;;;;;;5048723;28;20663;-64
2023/04/09 10:26:53;;;;;;;11.10;9.87;;;;;;;;;;5059336;28;20220;-64
2023/04/09 10:29:27;;;;;;;12.20;10.60;;;;;;;;;;5062682;28;20311;-67
2023/04/09 10:32:02;;;;;;;11.33;10.10;;;;;;;;;;5045054;28;22063;-64
2023/04/09 10:34:34;;;;;;;10.43;9.33;;;;;;;;;;5035949;28;21431;-64
2023/04/09 10:37:01;;;;;;;10.33;9.23;;;;;;;;;;5045757;28;20289;-64
2023/04/09 10:39:32;;;;;;;9.17;8.27;;;;;;;;;;5062215;28;20244;-64
2023/04/09 10:42:03;;;;;;;9.60;8.60;;;;;;;;;;5041321;28;20407;-63
2023/04/09 10:44:31;;;;;;;8.80;7.90;;;;;;;;;;5042809;28;20217;-65
2023/04/09 10:46:58;;;;;;;8.33;7.53;;;;;;;;;;5049981;28;20220;-64
2023/04/09 10:49:26;;;;;;;10.23;8.87;;;;;;;;;;5067713;28;20233;-65
2023/04/09 10:52:04;;;;;;;7.73;7.03;;;;;;;;;;5049842;28;20216;-65
2023/04/09 10:54:36;;;;;;;7.50;6.77;;;;;;;;;;5060216;28;20278;-66
2023/04/09 10:57:09;;;;;;;8.20;7.40;;;;;;;;;;5067860;28;20337;-65
2023/04/09 10:59:41;;;;;;;8.37;7.27;;;;;;;;;;5065142;28;20233;-65
2023/04/09 11:02:12;;;;;;;7.80;7.03;;;;;;;;;;5063526;28;20336;-65
2023/04/09 11:04:39;;;;;;;8.17;7.37;;;;;;;;;;5046078;28;20205;-65
2023/04/09 11:07:08;;;;;;;8.33;7.43;;;;;;;;;;5059849;28;20223;-65
2023/04/09 11:09:35;;;;;;;9.03;8.10;;;;;;;;;;5058869;28;20328;-64
2023/04/09 11:12:03;;;;;;;10.53;9.13;;;;;;;;;;5061141;28;20678;-65
2023/04/09 11:14:30;;;;;;;8.57;7.67;;;;;;;;;;5061744;28;20236;-63
2023/04/09 11:16:58;;;;;;;14.13;10.80;;;;;;;;;;5052102;28;20316;-64
2023/04/09 11:19:25;;;;;;;9.90;8.90;;;;;;;;;;5062243;28;20255;-64
2023/04/09 11:21:53;;;;;;;9.97;8.30;;;;;;;;;;5049317;28;20723;-65
2023/04/09 11:24:20;;;;;;;10.27;8.57;;;;;;;;;;5056415;28;20308;-65
2023/04/09 11:26:48;;;;;;;9.80;8.60;;;;;;;;;;5049621;28;20223;-64
2023/04/09 11:29:15;;;;;;;10.47;8.70;;;;;;;;;;5068580;28;20221;-64
2023/04/09 11:31:45;;;;;;;9.90;8.90;;;;;;;;;;5063700;28;20377;-65
2023/04/09 11:34:13;;;;;;;11.30;9.53;;;;;;;;;;5058338;28;20852;-63
2023/04/09 11:36:40;;;;;;;9.50;8.50;;;;;;;;;;5051610;28;20264;-63
2023/04/09 11:39:08;;;;;;;11.17;8.53;;;;;;;;;;5053536;28;20694;-63
2023/04/09 11:41:36;;;;;;;9.73;8.73;;;;;;;;;;5065360;28;21100;-63
2023/04/09 11:44:09;;;;;;;9.03;8.00;;;;;;;;;;5061143;28;20290;-65
2023/04/09 11:46:38;;;;;;;8.00;7.20;;;;;;;;;;5042187;28;20289;-67
2023/04/09 11:49:06;;;;;;;9.87;8.87;;;;;;;;;;5062457;28;20233;-63
2023/04/09 11:51:34;;;;;;;8.27;7.47;;;;;;;;;;5043303;28;20205;-65
2023/04/09 11:54:02;;;;;;;8.27;7.47;;;;;;;;;;5043875;28;21078;-66
2023/04/09 11:56:30;;;;;;;8.47;7.57;;;;;;;;;;5039153;28;20818;-65
2023/04/09 11:58:58;;;;;;;8.20;7.40;;;;;;;;;;5064999;28;20282;-63
2023/04/09 12:01:31;;;;;;;7.63;6.80;;;;;;;;;;5044692;28;20829;-63
2023/04/09 12:03:58;;;;;;;8.07;7.27;;;;;;;;;;5058262;28;20238;-65
2023/04/09 12:06:28;;;;;;;8.20;7.40;;;;;;;;;;5036016;28;20251;-65
2023/04/09 12:08:59;;;;;;;8.70;7.73;;;;;;;;;;5056112;28;20228;-64
2023/04/09 12:11:27;;;;;;;8.20;7.30;;;;;;;;;;5046441;28;20745;-64
2023/04/09 12:13:59;;;;;;;7.33;6.63;;;;;;;;;;5074066;28;20237;-65
2023/04/09 12:16:26;;;;;;;8.97;8.07;;;;;;;;;;5064128;28;20205;-64
2023/04/09 12:18:54;;;;;;;7.80;7.10;;;;;;;;;;5063288;28;20229;-64
2023/04/09 12:21:25;;;;;;;8.27;7.47;;;;;;;;;;5062120;28;20216;-64
2023/04/09 12:23:53;;;;;;;7.77;6.97;;;;;;;;;;5053078;28;20208;-64
2023/04/09 12:26:20;;;;;;;7.30;6.60;;;;;;;;;;5061724;28;20266;-64
2023/04/09 12:28:48;;;;;;;8.00;7.20;;;;;;;;;;5059369;28;20352;-63
2023/04/09 12:31:15;;;;;;;7.83;7.03;;;;;;;;;;5059048;28;20284;-64
2023/04/09 12:33:42;;;;;;;7.73;6.93;;;;;;;;;;5059125;28;20709;-63
2023/04/09 12:36:10;;;;;;;9.37;7.50;;;;;;;;;;5063605;28;20331;-65
2023/04/09 12:38:37;;;;;;;8.83;7.93;;;;;;;;;;5049289;28;20710;-64
2023/04/09 12:41:05;;;;;;;6.70;6.10;;;;;;;;;;5064770;28;20288;-64
2023/04/09 12:43:33;;;;;;;7.07;6.43;;;;;;;;;;5054053;28;20231;-63
2023/04/09 12:46:00;;;;;;;6.67;6.07;;;;;;;;;;5058102;28;20263;-64
2023/04/09 12:48:28;;;;;;;6.97;6.27;;;;;;;;;;5056921;28;20232;-65
2023/04/09 12:50:55;;;;;;;6.47;5.87;;;;;;;;;;5063254;28;20244;-65
2023/04/09 12:53:22;;;;;;;7.35;6.60;;;;;;;;;;5048763;28;20638;-65
2023/04/09 12:55:50;;;;;;;9.75;7.32;;;;;;;;;;5063106;28;20891;-65
2023/04/09 12:58:18;;;;;;;6.97;6.38;;;;;;;;;;5060839;28;20247;-64
2023/04/09 13:00:45;;;;;;;7.07;6.40;;;;;;;;;;5062772;28;23155;-65
2023/04/09 13:03:15;;;;;;;7.07;6.00;;;;;;;;;;5059299;28;20288;-65
2023/04/09 13:05:43;;;;;;;6.30;5.70;;;;;;;;;;5062328;28;20519;-64
2023/04/09 13:08:11;;;;;;;6.63;6.03;;;;;;;;;;5064990;28;20755;-63
2023/04/09 13:10:38;;;;;;;7.20;6.50;;;;;;;;;;5060923;28;20308;-63
2023/04/09 13:13:10;;;;;;;7.23;6.53;;;;;;;;;;5064785;28;21283;-64
2023/04/09 13:15:45;;;;;;;7.10;6.40;;;;;;;;;;5061426;28;20204;-64
2023/04/09 13:18:12;;;;;;;6.67;6.07;;;;;;;;;;5068498;28;20248;-67
2023/04/09 13:20:40;;;;;;;6.00;5.50;;;;;;;;;;5059131;28;20200;-65
2023/04/09 13:23:07;;;;;;;6.90;6.20;;;;;;;;;;5045996;28;20386;-65
2023/04/09 13:25:35;;;;;;;6.23;5.67;;;;;;;;;;5065856;28;20204;-64
2023/04/09 13:28:02;;;;;;;5.67;5.17;;;;;;;;;;5043183;28;20201;-64
2023/04/09 13:30:30;;;;;;;4.93;4.53;;;;;;;;;;5044458;28;20216;-65
2023/04/09 13:32:57;;;;;;;5.13;4.67;;;;;;;;;;5052379;28;20217;-64
2023/04/09 13:35:25;;;;;;;5.10;4.60;;;;;;;;;;5049728;28;20690;-64
2023/04/09 13:37:52;;;;;;;5.87;4.97;;;;;;;;;;5046018;28;20312;-65
2023/04/09 13:40:20;;;;;;;4.87;4.47;;;;;;;;;;5051076;28;20197;-64
2023/04/09 13:42:47;;;;;;;4.93;4.53;;;;;;;;;;5035897;28;20402;-64
2023/04/09 13:45:15;;;;;;;5.17;4.67;;;;;;;;;;5044584;28;20256;-65
2023/04/09 13:47:42;;;;;;;5.82;4.95;;;;;;;;;;5026030;28;20273;-65
2023/04/09 13:50:11;;;;;;;5.65;5.15;;;;;;;;;;5029852;28;20224;-65
2023/04/09 13:52:39;;;;;;;5.43;4.93;;;;;;;;;;5017296;28;21152;-67
2023/04/09 13:55:07;;;;;;;4.85;4.45;;;;;;;;;;5034219;28;20271;-66
2023/04/09 13:57:34;;;;;;;4.53;4.22;;;;;;;;;;5053760;28;20226;-64
2023/04/09 14:00:03;;;;;;;4.28;3.88;;;;;;;;;;5031750;28;20740;-66
2023/04/09 14:02:31;;;;;;;5.22;4.72;;;;;;;;;;5049731;28;20666;-65
2023/04/09 14:05:01;;;;;;;5.03;4.63;;;;;;;;;;5044713;28;20214;-65
2023/04/09 14:07:28;;;;;;;5.10;4.60;;;;;;;;;;5038784;28;20350;-65
2023/04/09 14:09:56;;;;;;;4.90;4.50;;;;;;;;;;5048025;28;20224;-65
2023/04/09 14:12:23;;;;;;;5.00;4.60;;;;;;;;;;5060082;28;20205;-65
2023/04/09 14:14:52;;;;;;;6.78;6.18;;;;;;;;;;5055713;28;20319;-65
2023/04/09 14:17:19;;;;;;;6.03;5.50;;;;;;;;;;5053652;28;20229;-65
2023/04/09 14:19:47;;;;;;;5.70;5.20;;;;;;;;;;5050074;28;20229;-65
2023/04/09 14:22:14;;;;;;;5.68;4.72;;;;;;;;;;5042080;28;20282;-65
2023/04/09 14:24:41;;;;;;;6.10;5.50;;;;;;;;;;5054242;28;20278;-65
2023/04/09 14:27:09;;;;;;;6.18;5.57;;;;;;;;;;5057312;28;20200;-65
2023/04/09 14:29:37;;;;;;;6.25;5.65;;;;;;;;;;5062813;28;22319;-65